createdAt,value
2023-04-21T00:01:32.150Z,17.30
2023-04-21T00:04:34.337Z,17.20
2023-04-21T00:07:38.396Z,17.20
2023-04-21T00:10:41.578Z,17.20
2023-04-21T00:13:43.826Z,17.20
2023-04-21T00:16:45.971Z,17.20
2023-04-21T00:19:48.096Z,17.20
2023-04-21T00:22:52.781Z,17.20
2023-04-21T00:25:55.575Z,17.10
2023-04-21T00:28:57.736Z,17.10
2023-04-21T00:32:00.837Z,17.10
2023-04-21T00:35:03.327Z,17.00
2023-04-21T00:38:05.463Z,17.00
2023-04-21T00:41:07.784Z,17.00
2023-04-21T00:44:10.638Z,17.00
2023-04-21T00:47:12.936Z,17.00
2023-04-21T00:50:15.378Z,17.00
2023-04-21T00:53:18.051Z,17.00
2023-04-21T00:56:20.226Z,16.90
2023-04-21T00:59:22.271Z,16.90
2023-04-21T01:02:24.785Z,16.90
2023-04-21T01:05:26.931Z,16.90
2023-04-21T01:08:29.303Z,16.90
2023-04-21T01:11:32.284Z,16.90
2023-04-21T01:14:35.096Z,16.90
2023-04-21T01:17:38.923Z,16.80
2023-04-21T01:20:41.326Z,16.80
2023-04-21T01:23:43.843Z,16.80
2023-04-21T01:26:49.474Z,16.80
2023-04-21T01:29:53.470Z,16.80
2023-04-21T01:32:55.508Z,16.80
2023-04-21T01:35:57.709Z,16.80
2023-04-21T01:39:00.732Z,16.80
2023-04-21T01:42:02.783Z,16.80
2023-04-21T01:45:06.143Z,16.80
2023-04-21T01:48:08.257Z,16.80
2023-04-21T01:51:11.300Z,16.80
2023-04-21T01:54:13.430Z,16.80
2023-04-21T01:57:16.608Z,16.80
2023-04-21T02:00:19.035Z,16.80
2023-04-21T02:03:21.404Z,16.80
2023-04-21T02:06:24.494Z,16.80
2023-04-21T02:09:26.713Z,16.80
2023-04-21T02:12:28.790Z,16.80
2023-04-21T02:15:30.902Z,16.80
2023-04-21T02:18:34.608Z,16.80
2023-04-21T02:21:36.664Z,16.70
2023-04-21T02:24:38.961Z,16.70
2023-04-21T02:27:41.032Z,16.70
2023-04-21T02:30:43.057Z,16.70
2023-04-21T02:33:45.613Z,16.70
2023-04-21T02:36:47.706Z,16.70
2023-04-21T02:39:50.407Z,16.70
2023-04-21T02:42:52.362Z,16.70
2023-04-21T02:45:54.514Z,16.60
2023-04-21T02:48:57.071Z,16.60
2023-04-21T02:51:59.178Z,16.60
2023-04-21T02:55:03.485Z,16.50
2023-04-21T02:58:05.522Z,16.40
2023-04-21T03:01:07.655Z,16.40
2023-04-21T03:04:09.828Z,16.40
2023-04-21T03:07:15.253Z,16.40
2023-04-21T03:10:17.326Z,16.40
2023-04-21T03:13:19.343Z,16.40
2023-04-21T03:16:21.636Z,16.40
2023-04-21T03:19:23.782Z,16.40
2023-04-21T03:22:26.293Z,16.40
2023-04-21T03:25:28.325Z,16.40
2023-04-21T03:28:30.438Z,16.40
2023-04-21T03:31:32.588Z,16.40
2023-04-21T03:34:34.567Z,16.40
2023-04-21T03:37:36.696Z,16.40
2023-04-21T03:40:38.702Z,16.30
2023-04-21T03:43:40.841Z,16.30
2023-04-21T03:46:43.126Z,16.30
2023-04-21T03:49:45.117Z,16.30
2023-04-21T03:52:47.304Z,16.30
2023-04-21T03:55:53.121Z,16.30
2023-04-21T03:58:55.282Z,16.20
2023-04-21T04:01:57.341Z,16.20
2023-04-21T04:04:59.525Z,16.20
2023-04-21T04:08:06.751Z,16.20
2023-04-21T04:11:08.963Z,16.20
2023-04-21T04:14:11.490Z,16.20
2023-04-21T04:17:13.690Z,16.20
2023-04-21T04:20:15.887Z,16.20
2023-04-21T04:23:19.064Z,16.20
2023-04-21T04:26:22.821Z,16.20
2023-04-21T04:29:25.115Z,16.20
2023-04-21T04:32:30.174Z,16.20
2023-04-21T04:35:32.364Z,16.10
2023-04-21T04:38:37.650Z,16.20
2023-04-21T04:41:41.806Z,16.10
2023-04-21T04:44:44.001Z,16.20
2023-04-21T04:47:46.386Z,16.20
2023-04-21T04:50:48.632Z,16.10
2023-04-21T04:53:50.898Z,16.10
2023-04-21T04:56:53.181Z,16.10
2023-04-21T04:59:56.410Z,16.10
2023-04-21T05:02:58.758Z,16.10
2023-04-21T05:06:01.146Z,16.10
2023-04-21T05:09:05.053Z,16.10
2023-04-21T05:12:09.183Z,16.10
2023-04-21T05:15:12.214Z,16.10
2023-04-21T05:18:14.454Z,16.10
2023-04-21T05:21:24.096Z,16.20
2023-04-21T05:24:26.277Z,16.10
2023-04-21T05:27:29.477Z,16.10
2023-04-21T05:30:31.646Z,16.10
2023-04-21T05:33:33.850Z,16.00
2023-04-21T05:36:36.107Z,15.90
2023-04-21T05:39:38.343Z,16.00
2023-04-21T05:42:40.514Z,16.10
2023-04-21T05:45:42.700Z,16.20
2023-04-21T05:48:45.029Z,16.30
2023-04-21T05:51:47.231Z,16.40
2023-04-21T05:54:49.563Z,16.50
2023-04-21T05:57:51.793Z,16.60
2023-04-21T06:00:53.925Z,16.70
2023-04-21T06:03:56.384Z,16.70
2023-04-21T06:06:58.619Z,16.80
2023-04-21T06:10:00.864Z,16.90
2023-04-21T06:13:03.631Z,17.00
2023-04-21T06:16:06.211Z,17.00
2023-04-21T06:19:08.365Z,16.80
2023-04-21T06:22:11.416Z,16.70
2023-04-21T06:25:13.661Z,16.70
2023-04-21T06:28:16.735Z,16.60
2023-04-21T06:31:20.082Z,16.60
2023-04-21T06:34:22.604Z,16.50
2023-04-21T06:37:26.290Z,16.40
2023-04-21T06:40:28.569Z,16.40
2023-04-21T06:43:30.729Z,16.40
2023-04-21T06:46:32.901Z,16.60
2023-04-21T06:49:35.256Z,16.60
2023-04-21T06:52:37.341Z,16.60
2023-04-21T06:55:40.422Z,16.70
2023-04-21T06:58:42.540Z,16.80
2023-04-21T07:01:44.794Z,16.80
2023-04-21T07:04:47.340Z,16.80
2023-04-21T07:07:49.976Z,17.00
2023-04-21T07:10:52.355Z,17.00
2023-04-21T07:13:55.886Z,17.30
2023-04-21T07:16:58.165Z,17.60
2023-04-21T07:20:06.461Z,17.80
2023-04-21T07:23:08.654Z,17.70
2023-04-21T07:26:10.887Z,17.80
2023-04-21T07:29:13.081Z,18.00
2023-04-21T07:32:16.019Z,18.00
2023-04-21T07:35:18.619Z,18.00
2023-04-21T07:38:21.080Z,17.90
2023-04-21T07:41:23.563Z,17.70
2023-04-21T07:44:25.935Z,17.80
2023-04-21T07:47:28.441Z,17.90
2023-04-21T07:50:31.043Z,17.90
2023-04-21T07:53:33.268Z,17.80
2023-04-21T07:56:35.632Z,17.70
2023-04-21T07:59:37.834Z,17.70
2023-04-21T08:02:40.213Z,17.90
2023-04-21T08:05:42.954Z,18.00
2023-04-21T08:08:45.231Z,18.20
2023-04-21T08:11:47.600Z,18.20
2023-04-21T08:14:49.822Z,18.20
2023-04-21T08:17:52.881Z,18.00
2023-04-21T08:20:57.703Z,18.10
2023-04-21T08:24:00.275Z,18.10
2023-04-21T08:27:03.831Z,18.10
2023-04-21T08:30:08.278Z,18.10
2023-04-21T08:33:13.971Z,18.20
2023-04-21T08:36:28.553Z,18.30
2023-04-21T08:39:31.480Z,18.50
2023-04-21T08:42:37.175Z,18.60
2023-04-21T08:45:41.056Z,18.70
2023-04-21T08:48:43.327Z,19.00
2023-04-21T08:51:46.334Z,19.00
2023-04-21T08:54:52.194Z,19.20
2023-04-21T08:57:54.595Z,19.30
2023-04-21T09:00:58.854Z,19.70
2023-04-21T09:04:17.757Z,20.10
2023-04-21T09:07:36.328Z,20.40
2023-04-21T09:10:51.229Z,20.70
2023-04-21T09:13:58.151Z,21.30
2023-04-21T09:17:04.789Z,21.50
2023-04-21T09:20:17.528Z,21.80
2023-04-21T09:23:21.650Z,22.10
2023-04-21T09:26:23.911Z,22.10
2023-04-21T09:29:26.835Z,22.00
2023-04-21T09:32:29.075Z,21.80
2023-04-21T09:35:36.563Z,21.80
2023-04-21T09:38:38.752Z,21.40
2023-04-21T09:41:41.286Z,20.90
2023-04-21T09:44:52.367Z,21.00
2023-04-21T09:48:03.059Z,20.90
2023-04-21T09:57:25.901Z,20.70
2023-04-21T10:00:29.113Z,21.00
2023-04-21T10:03:31.904Z,21.20
2023-04-21T10:06:34.310Z,21.50
2023-04-21T10:09:59.833Z,21.20
2023-04-21T10:13:02.878Z,21.00
2023-04-21T10:16:11.809Z,21.00
2023-04-21T10:19:28.104Z,21.10
2023-04-21T10:22:34.785Z,21.10
2023-04-21T10:25:39.835Z,21.10
2023-04-21T10:28:57.221Z,21.40
2023-04-21T10:31:59.849Z,22.00
2023-04-21T10:35:02.266Z,22.30
2023-04-21T10:38:08.167Z,22.10
2023-04-21T10:41:29.982Z,22.10
2023-04-21T10:44:33.082Z,22.10
2023-04-21T10:47:49.804Z,21.60
2023-04-21T10:50:52.271Z,21.40
2023-04-21T10:53:54.420Z,21.40
2023-04-21T10:56:59.183Z,21.40
2023-04-21T11:00:01.896Z,21.60
2023-04-21T11:03:06.795Z,21.40
2023-04-21T11:06:18.760Z,21.50
2023-04-21T11:09:21.267Z,21.40
2023-04-21T11:12:31.290Z,21.10
2023-04-21T11:15:33.456Z,21.10
2023-04-21T11:18:43.676Z,21.10
2023-04-21T11:21:49.213Z,21.20
2023-04-21T11:24:55.548Z,21.10
2023-04-21T11:28:00.413Z,21.00
2023-04-21T11:31:03.104Z,21.10
2023-04-21T11:34:07.130Z,21.10
2023-04-21T11:37:10.904Z,21.10
2023-04-21T11:40:14.324Z,21.30
2023-04-21T11:43:16.549Z,21.30
2023-04-21T11:46:25.791Z,21.00
2023-04-21T11:49:29.639Z,20.80
2023-04-21T11:52:33.557Z,20.90
2023-04-21T11:55:37.278Z,21.00
2023-04-21T11:58:39.984Z,20.80
2023-04-21T12:01:49.810Z,20.90
2023-04-21T12:05:08.895Z,20.60
2023-04-21T12:08:16.165Z,20.30
2023-04-21T12:11:18.455Z,19.90
2023-04-21T12:14:23.026Z,19.70
2023-04-21T12:17:25.267Z,19.40
2023-04-21T12:20:30.032Z,19.20
2023-04-21T12:23:32.428Z,19.10
2023-04-21T12:26:34.459Z,19.20
2023-04-21T12:29:37.770Z,19.20
2023-04-21T12:32:39.848Z,19.10
2023-04-21T12:35:42.103Z,19.00
2023-04-21T12:38:44.819Z,18.90
2023-04-21T12:41:49.581Z,18.80
2023-04-21T12:44:51.906Z,18.70
2023-04-21T12:47:55.270Z,18.60
2023-04-21T12:50:57.470Z,18.70
2023-04-21T12:53:59.731Z,18.60
2023-04-21T12:57:02.410Z,18.70
2023-04-21T13:00:06.379Z,18.80
2023-04-21T13:03:08.698Z,18.60
2023-04-21T13:06:11.169Z,18.60
2023-04-21T13:09:13.433Z,18.50
2023-04-21T13:12:15.615Z,18.40
2023-04-21T13:15:17.824Z,18.30
2023-04-21T13:18:19.920Z,18.20
2023-04-21T13:21:22.048Z,18.30
2023-04-21T13:24:26.098Z,18.20
2023-04-21T13:27:28.332Z,18.20
2023-04-21T13:30:30.651Z,18.30
2023-04-21T13:33:35.264Z,18.20
2023-04-21T13:36:37.586Z,18.10
2023-04-21T13:39:40.157Z,18.00
2023-04-21T13:42:42.429Z,18.10
2023-04-21T13:45:44.859Z,18.10
2023-04-21T13:48:46.995Z,18.20
2023-04-21T13:51:49.144Z,18.40
2023-04-21T13:54:52.574Z,18.40
2023-04-21T13:57:54.811Z,18.60
2023-04-21T14:00:57.309Z,18.90
2023-04-21T14:03:59.692Z,18.90
2023-04-21T14:07:02.276Z,19.10
2023-04-21T14:10:04.702Z,19.20
2023-04-21T14:13:06.854Z,19.30
2023-04-21T14:16:09.499Z,19.20
2023-04-21T14:19:11.817Z,19.00
2023-04-21T14:22:14.113Z,18.90
2023-04-21T14:25:16.407Z,18.90
2023-04-21T14:28:18.614Z,19.10
2023-04-21T14:31:22.265Z,18.80
2023-04-21T14:34:26.077Z,18.70
2023-04-21T14:37:28.188Z,18.40
2023-04-21T14:40:30.525Z,18.40
2023-04-21T14:43:32.747Z,18.40
2023-04-21T14:46:35.344Z,18.40
2023-04-21T14:49:38.607Z,18.30
2023-04-21T14:52:41.022Z,18.40
2023-04-21T14:55:43.076Z,18.50
2023-04-21T14:58:45.330Z,18.50
2023-04-21T15:01:47.554Z,18.30
2023-04-21T15:04:50.582Z,18.10
2023-04-21T15:07:52.847Z,18.00
2023-04-21T15:10:55.135Z,17.70
2023-04-21T15:13:57.473Z,17.50
2023-04-21T15:16:59.760Z,17.50
2023-04-21T15:20:02.067Z,17.50
2023-04-21T15:23:05.845Z,17.60
2023-04-21T15:26:07.978Z,17.70
2023-04-21T15:29:10.192Z,17.70
2023-04-21T15:32:12.324Z,17.70
2023-04-21T15:35:14.452Z,17.80
2023-04-21T15:38:16.608Z,18.00
2023-04-21T15:41:18.960Z,18.20
2023-04-21T15:44:21.456Z,18.20
2023-04-21T15:47:23.904Z,18.40
2023-04-21T15:50:26.121Z,18.60
2023-04-21T15:53:28.394Z,18.70
2023-04-21T15:56:30.727Z,18.70
2023-04-21T15:59:32.988Z,18.90
2023-04-21T16:02:35.329Z,18.60
2023-04-21T16:05:38.046Z,18.70
2023-04-21T16:08:40.638Z,18.70
2023-04-21T16:11:42.932Z,18.60
2023-04-21T16:14:56.073Z,18.50
2023-04-21T16:18:06.721Z,18.60
2023-04-21T16:21:09.361Z,18.50
2023-04-21T16:24:11.734Z,18.40
2023-04-21T16:27:14.907Z,18.30
2023-04-21T16:30:17.057Z,18.20
2023-04-21T16:33:19.326Z,18.20
2023-04-21T16:36:31.466Z,17.80
2023-04-21T16:39:33.761Z,17.80
2023-04-21T16:42:36.724Z,17.70
2023-04-21T16:45:38.980Z,17.60
2023-04-21T16:48:41.601Z,17.40
2023-04-21T16:51:45.200Z,17.40
2023-04-21T16:54:47.412Z,17.40
2023-04-21T16:57:49.737Z,17.40
2023-04-21T17:00:52.101Z,17.30
2023-04-21T17:03:54.684Z,17.10
2023-04-21T17:06:56.915Z,17.20
2023-04-21T17:09:59.027Z,17.20
2023-04-21T17:13:01.509Z,17.20
2023-04-21T17:16:03.739Z,17.30
2023-04-21T17:19:05.934Z,17.40
2023-04-21T17:22:08.047Z,17.40
2023-04-21T17:25:11.177Z,17.50
2023-04-21T17:28:15.462Z,17.50
2023-04-21T17:31:18.079Z,17.50
2023-04-21T17:34:20.267Z,17.20
2023-04-21T17:37:22.643Z,17.20
2023-04-21T17:40:24.870Z,16.90
2023-04-21T17:43:27.098Z,16.90
2023-04-21T17:46:29.415Z,17.00
2023-04-21T17:49:31.864Z,17.10
2023-04-21T17:52:34.009Z,17.20
2023-04-21T17:55:36.188Z,17.30
2023-04-21T17:58:38.317Z,17.30
2023-04-21T18:01:41.007Z,17.40
2023-04-21T18:04:44.010Z,17.30
2023-04-21T18:07:47.062Z,17.40
2023-04-21T18:10:50.831Z,17.40
2023-04-21T18:13:53.757Z,17.40
2023-04-21T18:16:59.331Z,17.30
2023-04-21T18:20:01.434Z,17.20
2023-04-21T18:23:03.645Z,17.30
2023-04-21T18:26:05.914Z,17.30
2023-04-21T18:29:08.086Z,17.30
2023-04-21T18:32:10.304Z,17.30
2023-04-21T18:35:14.312Z,17.10
2023-04-21T18:38:16.932Z,17.10
2023-04-21T18:41:19.246Z,17.00
2023-04-21T18:44:21.906Z,17.00
2023-04-21T18:47:24.380Z,16.90
2023-04-21T18:50:30.419Z,16.90
2023-04-21T18:53:32.542Z,16.90
2023-04-21T18:56:35.027Z,16.80
2023-04-21T18:59:37.069Z,16.90
2023-04-21T19:02:39.922Z,16.80
2023-04-21T19:05:42.481Z,16.80
2023-04-21T19:08:44.952Z,16.90
2023-04-21T19:11:47.275Z,16.70
2023-04-21T19:14:50.250Z,16.70
2023-04-21T19:17:52.535Z,16.60
2023-04-21T19:20:54.644Z,16.70
2023-04-21T19:23:57.928Z,16.50
2023-04-21T19:27:02.770Z,16.60
2023-04-21T19:30:07.582Z,16.60
2023-04-21T19:33:09.747Z,16.60
2023-04-21T19:36:13.864Z,16.60
2023-04-21T19:39:16.344Z,16.60
2023-04-21T19:42:18.461Z,16.60
2023-04-21T19:45:22.625Z,16.60
2023-04-21T19:48:25.042Z,16.60
2023-04-21T19:51:28.120Z,16.50
2023-04-21T19:54:31.155Z,16.50
2023-04-21T19:57:34.397Z,16.50
2023-04-21T20:00:36.874Z,16.40
2023-04-21T20:03:40.269Z,16.40
2023-04-21T20:06:42.676Z,16.30
2023-04-21T20:09:44.961Z,16.30
2023-04-21T20:12:47.135Z,16.30
2023-04-21T20:15:49.334Z,16.30
2023-04-21T20:18:51.549Z,16.30
2023-04-21T20:21:53.699Z,16.30
2023-04-21T20:24:58.236Z,16.30
2023-04-21T20:28:00.583Z,16.30
2023-04-21T20:31:03.172Z,16.30
2023-04-21T20:34:05.702Z,16.30
2023-04-21T20:37:08.024Z,16.20
2023-04-21T20:40:11.875Z,16.20
2023-04-21T20:43:15.411Z,16.20
2023-04-21T20:46:18.764Z,16.20
2023-04-21T20:49:20.967Z,16.10
2023-04-21T20:52:23.260Z,16.00
2023-04-21T20:55:25.576Z,16.00
2023-04-21T20:58:27.775Z,16.00
2023-04-21T21:01:31.432Z,16.00
2023-04-21T21:04:33.816Z,16.00
2023-04-21T21:07:35.954Z,15.90
2023-04-21T21:10:40.463Z,15.90
2023-04-21T21:13:42.564Z,15.80
2023-04-21T21:16:45.862Z,15.70
2023-04-21T21:19:49.436Z,15.80
2023-04-21T21:22:51.540Z,15.80
2023-04-21T21:25:53.663Z,15.70
2023-04-21T21:28:55.896Z,15.70
2023-04-21T21:31:57.983Z,15.80
2023-04-21T21:35:00.185Z,15.80
2023-04-21T21:38:03.332Z,15.80
2023-04-21T21:41:05.867Z,15.80
2023-04-21T21:44:08.117Z,15.80
2023-04-21T21:47:10.353Z,15.80
2023-04-21T21:50:12.826Z,15.80
2023-04-21T21:53:15.014Z,15.80
2023-04-21T21:56:17.303Z,15.80
2023-04-21T21:59:20.242Z,15.80
2023-04-21T22:02:22.616Z,15.80
2023-04-21T22:05:24.988Z,15.80
2023-04-21T22:08:27.157Z,15.70
2023-04-21T22:11:29.338Z,15.70
2023-04-21T22:14:31.405Z,15.70
2023-04-21T22:17:34.799Z,15.70
2023-04-21T22:20:37.000Z,15.70
2023-04-21T22:23:39.148Z,15.60
2023-04-21T22:26:42.100Z,15.60
2023-04-21T22:29:44.402Z,15.50
2023-04-21T22:32:46.806Z,15.50
2023-04-21T22:35:48.969Z,15.50
2023-04-21T22:38:51.076Z,15.40
2023-04-21T22:41:53.492Z,15.50
2023-04-21T22:44:55.795Z,15.50
2023-04-21T22:47:58.161Z,15.50
2023-04-21T22:51:00.505Z,15.50
2023-04-21T22:54:02.748Z,15.50
2023-04-21T22:57:04.987Z,15.50
2023-04-21T23:00:09.826Z,15.50
2023-04-21T23:03:12.198Z,15.50
2023-04-21T23:06:14.462Z,15.50
2023-04-21T23:09:16.597Z,15.50
2023-04-21T23:12:18.853Z,15.50
2023-04-21T23:15:21.528Z,15.50
2023-04-21T23:18:23.665Z,15.50
2023-04-21T23:21:26.367Z,15.50
2023-04-21T23:24:28.517Z,15.60
2023-04-21T23:27:30.615Z,15.60
2023-04-21T23:30:32.874Z,15.60
2023-04-21T23:33:35.191Z,15.60
2023-04-21T23:36:37.404Z,15.60
2023-04-21T23:39:39.714Z,15.60
2023-04-21T23:42:41.927Z,15.50
2023-04-21T23:45:49.769Z,15.50
2023-04-21T23:48:52.126Z,15.50
2023-04-21T23:51:54.228Z,15.60
2023-04-21T23:54:56.345Z,15.60
2023-04-21T23:57:58.494Z,15.60
